Terminal Aerodrome Forecast
Issued by NWS

Home | Current Version | Previous Version | Graphics & Text | Print | Product List | Glossary On
Versions: 1 2 3 4 5 6 7 8 9 10 11 12 13 14 15 16 17 18 19 20 21 22 23 24 25 26 27
000
FTUS43 KBIS 221300 AAA
TAFDIK
TAF AMD
KDIK 221302Z 2213/2312 02003KT P6SM SCT010 OVC025
      TEMPO 2213/2216 3SM -RA BR SCT005 BKN010 OVC025
     FM221600 07009KT P6SM BKN035
     FM230600 06011KT 6SM SHRA OVC035=

USA.gov is the U.S. government's official web portal to all federal, state and local government web resources and services.